createdAt,value
2023-01-28T00:02:15.869Z,19.40
2023-01-28T00:04:43.726Z,18.60
2023-01-28T00:07:11.487Z,10.30
2023-01-28T00:09:40.091Z,8.52
2023-01-28T00:12:08.027Z,8.52
2023-01-28T00:14:35.870Z,11.75
2023-01-28T00:17:06.220Z,13.63
2023-01-28T00:19:34.247Z,8.95
2023-01-28T00:22:02.870Z,11.07
2023-01-28T00:24:31.314Z,7.88
2023-01-28T00:26:59.096Z,7.07
2023-01-28T00:29:27.623Z,10.23
2023-01-28T00:31:55.612Z,8.07
2023-01-28T00:34:23.758Z,7.93
2023-01-28T00:36:58.098Z,5.70
2023-01-28T00:39:26.579Z,17.13
2023-01-28T00:41:54.922Z,10.02
2023-01-28T00:44:25.467Z,9.75
2023-01-28T00:46:53.369Z,11.00
2023-01-28T00:49:23.184Z,14.18
2023-01-28T00:51:51.105Z,13.68
2023-01-28T00:54:18.957Z,16.38
2023-01-28T00:56:46.900Z,10.82
2023-01-28T00:59:14.682Z,13.02
2023-01-28T01:01:42.623Z,13.52
2023-01-28T01:04:10.479Z,14.80
2023-01-28T01:06:40.135Z,14.05
2023-01-28T01:09:09.549Z,18.17
2023-01-28T01:11:37.383Z,14.30
2023-01-28T01:14:07.438Z,15.88
2023-01-28T01:16:36.553Z,17.38
2023-01-28T01:19:05.606Z,12.82
2023-01-28T01:21:33.368Z,10.40
2023-01-28T01:24:01.323Z,10.43
2023-01-28T01:26:29.257Z,9.60
2023-01-28T01:28:58.576Z,9.75
2023-01-28T01:31:26.490Z,7.68
2023-01-28T01:33:54.468Z,16.52
2023-01-28T01:36:22.585Z,11.77
2023-01-28T01:38:54.173Z,13.35
2023-01-28T01:41:30.348Z,11.27
2023-01-28T01:44:02.741Z,8.27
2023-01-28T01:46:30.418Z,8.18
2023-01-28T01:48:58.243Z,7.28
2023-01-28T01:51:28.729Z,17.10
2023-01-28T01:53:56.543Z,12.65
2023-01-28T01:56:28.190Z,21.83
2023-01-28T01:58:57.339Z,16.55
2023-01-28T02:01:26.865Z,13.13
2023-01-28T02:04:09.347Z,14.88
2023-01-28T02:06:37.420Z,23.65
2023-01-28T02:09:20.724Z,18.17
2023-01-28T02:11:50.783Z,19.15
2023-01-28T02:14:30.545Z,21.10
2023-01-28T02:17:00.844Z,16.55
2023-01-28T02:19:50.569Z,14.90
2023-01-28T02:22:24.336Z,13.25
2023-01-28T02:25:34.098Z,15.60
2023-01-28T02:28:13.812Z,14.05
2023-01-28T02:30:59.359Z,15.88
2023-01-28T02:33:31.865Z,11.00
2023-01-28T02:36:00.885Z,11.55
2023-01-28T02:38:38.065Z,13.18
2023-01-28T02:41:08.158Z,15.30
2023-01-28T02:43:46.718Z,15.32
2023-01-28T02:46:52.273Z,16.90
2023-01-28T02:49:31.114Z,19.33
2023-01-28T02:52:01.630Z,23.05
2023-01-28T02:54:58.926Z,22.85
2023-01-28T02:57:37.087Z,22.02
2023-01-28T03:00:20.165Z,29.63
2023-01-28T03:02:54.922Z,26.02
2023-01-28T03:05:22.994Z,27.15
2023-01-28T03:07:51.214Z,23.10
2023-01-28T03:10:21.821Z,20.25
2023-01-28T03:13:10.794Z,19.27
2023-01-28T03:16:05.679Z,23.13
2023-01-28T03:19:04.361Z,19.08
2023-01-28T03:21:57.943Z,20.13
2023-01-28T03:24:57.309Z,16.77
2023-01-28T03:27:46.350Z,17.88
2023-01-28T03:30:38.610Z,17.60
2023-01-28T03:33:29.790Z,16.65
2023-01-28T03:36:16.095Z,24.67
2023-01-28T03:38:49.139Z,19.90
2023-01-28T03:41:22.943Z,21.60
2023-01-28T03:46:18.964Z,24.25
2023-01-28T03:48:46.891Z,26.25
2023-01-28T03:51:16.933Z,28.58
2023-01-28T03:53:44.835Z,21.13
2023-01-28T03:56:20.002Z,19.27
2023-01-28T03:58:54.115Z,17.65
2023-01-28T04:01:22.286Z,14.85
2023-01-28T04:03:50.264Z,12.90
2023-01-28T04:06:27.707Z,11.85
2023-01-28T04:08:59.741Z,12.25
2023-01-28T04:11:53.721Z,12.88
2023-01-28T04:14:47.672Z,7.97
2023-01-28T04:17:22.584Z,11.27
2023-01-28T04:19:50.536Z,10.73
2023-01-28T04:22:19.801Z,13.52
2023-01-28T04:24:47.866Z,13.80
2023-01-28T04:27:16.890Z,16.13
2023-01-28T04:29:44.935Z,11.93
2023-01-28T04:32:32.941Z,11.50
2023-01-28T04:35:22.720Z,10.73
2023-01-28T04:38:00.238Z,12.02
2023-01-28T04:40:54.800Z,9.82
2023-01-28T04:43:40.753Z,14.30
2023-01-28T04:46:28.624Z,13.65
2023-01-28T04:49:03.955Z,14.00
2023-01-28T04:51:47.765Z,14.23
2023-01-28T04:54:18.680Z,15.30
2023-01-28T04:56:49.912Z,18.95
2023-01-28T04:59:21.732Z,14.90
2023-01-28T05:01:54.424Z,13.82
2023-01-28T05:04:23.449Z,14.48
2023-01-28T05:06:56.616Z,12.50
2023-01-28T05:09:30.031Z,13.48
2023-01-28T05:11:58.313Z,13.05
2023-01-28T05:14:26.263Z,15.30
2023-01-28T05:17:03.434Z,14.23
2023-01-28T05:19:31.393Z,12.57
2023-01-28T05:21:59.927Z,19.52
2023-01-28T05:24:42.606Z,14.45
2023-01-28T05:27:11.093Z,14.32
2023-01-28T05:29:38.921Z,17.38
2023-01-28T05:32:06.719Z,16.65
2023-01-28T05:34:34.467Z,19.20
2023-01-28T05:37:08.260Z,12.68
2023-01-28T05:39:38.343Z,16.17
2023-01-28T05:42:06.496Z,13.30
2023-01-28T05:44:38.352Z,26.65
2023-01-28T05:47:39.149Z,14.27
2023-01-28T05:50:23.879Z,16.45
2023-01-28T05:53:10.146Z,14.35
2023-01-28T05:55:39.479Z,14.45
2023-01-28T05:58:07.413Z,18.08
2023-01-28T06:00:36.370Z,20.48
2023-01-28T06:03:06.455Z,12.07
2023-01-28T06:05:36.315Z,12.77
2023-01-28T06:08:04.434Z,16.95
2023-01-28T06:10:32.553Z,22.17
2023-01-28T06:13:00.206Z,17.80
2023-01-28T06:15:46.329Z,17.48
2023-01-28T06:18:46.685Z,15.18
2023-01-28T06:21:15.143Z,20.15
2023-01-28T06:23:43.106Z,16.83
2023-01-28T06:26:11.285Z,17.42
2023-01-28T06:28:41.882Z,20.50
2023-01-28T06:31:09.771Z,16.50
2023-01-28T06:33:37.570Z,24.10
2023-01-28T06:36:07.122Z,14.50
2023-01-28T06:38:35.487Z,15.70
2023-01-28T06:41:03.360Z,16.88
2023-01-28T06:43:31.289Z,17.00
2023-01-28T06:45:59.374Z,16.58
2023-01-28T06:48:27.395Z,15.20
2023-01-28T06:50:55.328Z,15.60
2023-01-28T06:53:23.151Z,17.40
2023-01-28T06:55:50.918Z,17.17
2023-01-28T06:58:18.895Z,14.82
2023-01-28T07:00:46.723Z,13.40
2023-01-28T07:03:14.515Z,9.25
2023-01-28T07:05:42.469Z,12.18
2023-01-28T07:08:10.536Z,10.93
2023-01-28T07:10:38.430Z,9.88
2023-01-28T07:13:06.282Z,12.60
2023-01-28T07:15:34.087Z,11.88
2023-01-28T07:18:02.218Z,17.58
2023-01-28T07:20:30.795Z,17.73
2023-01-28T07:23:01.461Z,20.30
2023-01-28T07:25:29.281Z,23.60
2023-01-28T07:27:56.926Z,24.35
2023-01-28T07:30:24.859Z,30.85
2023-01-28T07:32:56.620Z,19.75
2023-01-28T07:35:24.439Z,14.60
2023-01-28T07:37:56.642Z,15.68
2023-01-28T07:40:24.731Z,13.07
2023-01-28T07:42:53.674Z,9.57
2023-01-28T07:45:24.021Z,9.65
2023-01-28T07:47:58.912Z,35.17
2023-01-28T07:50:27.073Z,11.93
2023-01-28T07:52:54.910Z,11.93
2023-01-28T07:55:22.703Z,13.07
2023-01-28T07:57:54.778Z,14.77
2023-01-28T08:00:23.719Z,13.52
2023-01-28T08:02:55.537Z,12.57
2023-01-28T08:05:23.545Z,14.38
2023-01-28T08:07:51.451Z,29.70
2023-01-28T08:10:19.897Z,27.92
2023-01-28T08:12:59.284Z,24.85
2023-01-28T08:15:27.333Z,28.17
2023-01-28T08:17:56.188Z,26.00
2023-01-28T08:20:24.797Z,27.60
2023-01-28T08:22:52.627Z,21.95
2023-01-28T08:25:20.543Z,21.15
2023-01-28T08:27:48.436Z,21.23
2023-01-28T08:30:16.421Z,23.42
2023-01-28T08:32:44.507Z,23.92
2023-01-28T08:35:12.298Z,23.65
2023-01-28T08:37:40.024Z,32.35
2023-01-28T08:40:08.505Z,21.08
2023-01-28T08:42:36.282Z,19.90
2023-01-28T08:45:04.436Z,22.05
2023-01-28T08:47:32.229Z,18.70
2023-01-28T08:49:59.985Z,11.88
2023-01-28T08:52:27.951Z,13.25
2023-01-28T08:54:55.698Z,11.55
2023-01-28T08:57:23.551Z,13.57
2023-01-28T08:59:51.396Z,12.88
2023-01-28T09:02:30.816Z,14.13
2023-01-28T09:04:59.583Z,9.95
2023-01-28T09:07:27.335Z,16.50
2023-01-28T09:09:55.045Z,17.67
2023-01-28T09:12:22.965Z,13.18
2023-01-28T09:14:50.920Z,12.43
2023-01-28T09:17:18.705Z,14.85
2023-01-28T09:19:46.472Z,16.73
2023-01-28T09:22:14.292Z,29.58
2023-01-28T09:24:42.036Z,34.78
2023-01-28T09:27:09.837Z,35.90
2023-01-28T09:29:38.381Z,44.63
2023-01-28T09:32:07.761Z,48.80
2023-01-28T09:34:35.793Z,64.60
2023-01-28T09:37:03.646Z,58.15
2023-01-28T09:39:31.946Z,77.03
2023-01-28T09:42:21.235Z,71.50
2023-01-28T09:45:00.104Z,66.90
2023-01-28T09:47:42.494Z,68.47
2023-01-28T09:50:15.915Z,61.43
2023-01-28T09:52:44.043Z,56.95
2023-01-28T09:55:20.297Z,50.95
2023-01-28T09:57:52.817Z,48.67
2023-01-28T10:00:23.409Z,52.85
2023-01-28T10:03:12.912Z,47.75
2023-01-28T10:06:01.911Z,51.55
2023-01-28T10:08:35.350Z,41.95
2023-01-28T10:11:38.811Z,44.55
2023-01-28T10:14:29.508Z,43.53
2023-01-28T10:17:19.166Z,37.58
2023-01-28T10:20:13.485Z,33.20
2023-01-28T10:22:57.728Z,30.65
2023-01-28T10:25:26.618Z,41.92
2023-01-28T10:27:54.540Z,29.13
2023-01-28T10:30:28.022Z,23.15
2023-01-28T10:33:14.595Z,24.48
2023-01-28T10:35:42.691Z,23.33
2023-01-28T10:38:14.252Z,17.92
2023-01-28T10:40:42.715Z,28.35
2023-01-28T10:43:10.536Z,18.95
2023-01-28T10:46:03.809Z,15.43
2023-01-28T10:48:35.421Z,15.45
2023-01-28T10:51:05.577Z,20.23
2023-01-28T10:53:37.465Z,16.15
2023-01-28T10:56:08.236Z,19.20
2023-01-28T10:58:37.655Z,19.95
2023-01-28T11:01:07.484Z,19.88
2023-01-28T11:03:37.815Z,21.35
2023-01-28T11:06:06.021Z,26.63
2023-01-28T11:08:43.754Z,16.63
2023-01-28T11:11:16.090Z,20.63
2023-01-28T11:13:50.824Z,14.85
2023-01-28T11:16:18.984Z,21.42
2023-01-28T11:19:01.272Z,17.15
2023-01-28T11:21:30.053Z,18.30
2023-01-28T11:24:14.479Z,16.17
2023-01-28T11:26:46.425Z,21.23
2023-01-28T11:29:43.687Z,22.40
2023-01-28T11:32:21.074Z,42.40
2023-01-28T11:34:50.749Z,56.90
2023-01-28T11:37:19.136Z,51.88
2023-01-28T11:39:46.924Z,49.50
2023-01-28T11:42:20.745Z,28.65
2023-01-28T11:44:49.155Z,19.85
2023-01-28T11:48:04.423Z,17.50
2023-01-28T11:50:37.092Z,11.77
2023-01-28T11:53:52.560Z,15.57
2023-01-28T11:56:23.592Z,17.45
2023-01-28T11:59:10.341Z,14.27
2023-01-28T12:01:56.817Z,17.48
2023-01-28T12:04:36.465Z,19.05
2023-01-28T12:07:28.891Z,12.32
2023-01-28T12:10:17.564Z,13.70
2023-01-28T12:13:04.413Z,11.27
2023-01-28T12:15:37.677Z,15.07
2023-01-28T12:18:23.285Z,11.23
2023-01-28T12:20:53.725Z,9.95
2023-01-28T12:23:43.066Z,14.52
2023-01-28T12:26:22.452Z,13.35
2023-01-28T12:29:14.573Z,23.52
2023-01-28T12:32:01.631Z,14.50
2023-01-28T12:34:37.652Z,12.77
2023-01-28T12:37:38.555Z,10.52
2023-01-28T12:41:00.532Z,16.67
2023-01-28T12:43:48.480Z,11.93
2023-01-28T12:46:27.577Z,15.93
2023-01-28T12:49:00.712Z,10.88
2023-01-28T12:54:07.851Z,11.55
2023-01-28T12:56:44.147Z,18.83
2023-01-28T12:59:16.094Z,39.35
2023-01-28T13:02:05.618Z,13.48
2023-01-28T13:04:53.785Z,11.90
2023-01-28T13:07:31.301Z,13.20
2023-01-28T13:10:18.526Z,16.90
2023-01-28T13:12:46.300Z,28.10
2023-01-28T13:15:15.250Z,28.75
2023-01-28T13:17:57.749Z,17.67
2023-01-28T13:20:52.902Z,20.43
2023-01-28T13:24:00.912Z,13.32
2023-01-28T13:26:43.260Z,12.02
2023-01-28T13:29:26.246Z,8.40
2023-01-28T13:31:55.963Z,12.40
2023-01-28T13:34:41.047Z,8.65
2023-01-28T13:37:35.624Z,9.00
2023-01-28T13:40:24.092Z,15.40
2023-01-28T13:43:28.649Z,13.63
2023-01-28T13:46:01.556Z,13.60
2023-01-28T13:48:46.302Z,11.90
2023-01-28T13:51:21.566Z,13.90
2023-01-28T13:54:00.206Z,21.58
2023-01-28T13:56:31.522Z,23.08
2023-01-28T13:59:11.107Z,19.17
2023-01-28T14:02:08.105Z,18.42
2023-01-28T14:04:44.832Z,21.17
2023-01-28T14:07:37.784Z,17.67
2023-01-28T14:10:27.854Z,14.18
2023-01-28T14:13:10.756Z,14.10
2023-01-28T14:15:47.301Z,16.50
2023-01-28T14:18:39.605Z,12.73
2023-01-28T14:21:16.562Z,12.50
2023-01-28T14:24:00.350Z,13.25
2023-01-28T14:26:56.274Z,10.68
2023-01-28T14:29:32.595Z,13.88
2023-01-28T14:32:05.415Z,9.73
2023-01-28T14:34:35.436Z,15.13
2023-01-28T14:37:08.901Z,14.20
2023-01-28T14:39:52.681Z,8.43
2023-01-28T14:42:27.134Z,12.95
2023-01-28T14:45:23.815Z,15.88
2023-01-28T14:48:06.610Z,13.60
2023-01-28T14:51:01.700Z,11.32
2023-01-28T14:53:54.204Z,16.98
2023-01-28T14:56:44.775Z,9.38
2023-01-28T14:59:22.860Z,10.05
2023-01-28T15:01:55.647Z,9.88
2023-01-28T15:04:25.460Z,11.73
2023-01-28T15:06:53.535Z,12.40
2023-01-28T15:09:21.886Z,8.10
2023-01-28T15:11:51.671Z,10.10
2023-01-28T15:14:30.665Z,11.98
2023-01-28T15:16:58.662Z,10.95
2023-01-28T15:19:31.314Z,16.83
2023-01-28T15:22:00.949Z,12.68
2023-01-28T15:24:28.959Z,14.27
2023-01-28T15:26:56.891Z,12.80
2023-01-28T15:29:26.272Z,14.52
2023-01-28T15:31:55.012Z,13.30
2023-01-28T15:34:23.968Z,14.98
2023-01-28T15:36:51.710Z,11.43
2023-01-28T15:39:20.991Z,8.15
2023-01-28T15:41:54.224Z,11.40
2023-01-28T15:44:33.360Z,12.10
2023-01-28T15:47:02.271Z,14.23
2023-01-28T15:49:37.981Z,29.70
2023-01-28T15:52:05.794Z,23.55
2023-01-28T15:54:33.741Z,30.27
2023-01-28T15:57:22.511Z,33.28
2023-01-28T15:59:52.920Z,19.98
2023-01-28T16:02:21.762Z,21.77
2023-01-28T16:04:59.790Z,18.58
2023-01-28T16:07:32.728Z,13.95
2023-01-28T16:10:02.347Z,15.02
2023-01-28T16:12:30.322Z,13.43
2023-01-28T16:14:59.872Z,11.65
2023-01-28T16:17:36.027Z,10.02
2023-01-28T16:20:06.312Z,15.02
2023-01-28T16:22:39.007Z,10.35
2023-01-28T16:25:22.115Z,12.98
2023-01-28T16:27:49.879Z,11.02
2023-01-28T16:30:19.697Z,13.48
2023-01-28T16:32:47.522Z,11.73
2023-01-28T16:35:23.489Z,9.48
2023-01-28T16:37:51.265Z,10.05
2023-01-28T16:40:21.319Z,15.55
2023-01-28T16:42:49.145Z,11.27
2023-01-28T16:45:21.549Z,17.77
2023-01-28T16:47:49.423Z,8.18
2023-01-28T16:50:17.404Z,8.05
2023-01-28T16:52:45.856Z,6.47
2023-01-28T16:55:18.616Z,6.57
2023-01-28T16:57:48.944Z,9.60
2023-01-28T17:00:21.129Z,8.55
2023-01-28T17:02:49.224Z,10.77
2023-01-28T17:05:17.524Z,7.82
2023-01-28T17:07:45.718Z,6.00
2023-01-28T17:10:13.497Z,6.63
2023-01-28T17:12:41.247Z,7.47
2023-01-28T17:15:09.599Z,9.40
2023-01-28T17:17:37.309Z,6.90
2023-01-28T17:20:06.567Z,8.75
2023-01-28T17:22:37.179Z,8.40
2023-01-28T17:25:05.259Z,8.73
2023-01-28T17:27:33.027Z,9.00
2023-01-28T17:30:00.746Z,8.15
2023-01-28T17:32:28.620Z,10.95
2023-01-28T17:34:56.355Z,7.82
2023-01-28T17:37:24.141Z,10.30
2023-01-28T17:39:51.793Z,8.32
2023-01-28T17:42:19.532Z,6.55
2023-01-28T17:44:47.396Z,10.05
2023-01-28T17:47:15.297Z,10.52
2023-01-28T17:49:43.131Z,8.95
2023-01-28T17:52:11.197Z,11.18
2023-01-28T17:54:39.796Z,8.43
2023-01-28T17:57:07.599Z,7.55
2023-01-28T17:59:35.417Z,5.00
2023-01-28T18:02:03.174Z,9.32
2023-01-28T18:04:30.984Z,6.07
2023-01-28T18:06:58.869Z,7.30
2023-01-28T18:09:26.747Z,10.10
2023-01-28T18:11:54.629Z,7.88
2023-01-28T18:14:22.507Z,8.75
2023-01-28T18:16:50.181Z,6.55
2023-01-28T18:19:17.899Z,6.65
2023-01-28T18:21:53.694Z,11.10
2023-01-28T18:24:25.465Z,7.63
2023-01-28T18:26:55.843Z,4.50
2023-01-28T18:29:24.544Z,7.45
2023-01-28T18:31:54.703Z,5.10
2023-01-28T18:34:27.031Z,8.18
2023-01-28T18:36:54.790Z,5.75
2023-01-28T18:39:22.630Z,10.75
2023-01-28T18:41:54.317Z,3.92
2023-01-28T18:44:23.547Z,3.53
2023-01-28T18:46:51.891Z,3.92
2023-01-28T18:49:19.686Z,5.47
2023-01-28T18:51:47.494Z,4.63
2023-01-28T18:54:16.214Z,4.40
2023-01-28T18:56:44.188Z,4.15
2023-01-28T18:59:13.440Z,6.97
2023-01-28T19:01:42.915Z,7.80
2023-01-28T19:04:10.947Z,6.15
2023-01-28T19:06:38.885Z,5.30
2023-01-28T19:09:09.796Z,5.07
2023-01-28T19:11:38.959Z,3.72
2023-01-28T19:14:07.194Z,4.95
2023-01-28T19:16:37.632Z,7.40
2023-01-28T19:19:05.534Z,5.68
2023-01-28T19:21:34.546Z,4.55
2023-01-28T19:24:04.159Z,3.90
2023-01-28T19:26:32.025Z,4.75
2023-01-28T19:28:59.963Z,8.25
2023-01-28T19:31:28.209Z,6.00
2023-01-28T19:33:57.646Z,8.48
2023-01-28T19:36:26.493Z,5.90
2023-01-28T19:39:01.331Z,4.55
2023-01-28T19:41:29.308Z,4.93
2023-01-28T19:43:57.618Z,5.25
2023-01-28T19:46:25.877Z,3.95
2023-01-28T19:48:53.997Z,4.93
2023-01-28T19:51:21.983Z,4.93
2023-01-28T19:53:53.451Z,7.65
2023-01-28T19:56:22.688Z,3.88
2023-01-28T19:58:50.525Z,5.00
2023-01-28T20:01:28.568Z,4.57
2023-01-28T20:04:01.614Z,4.93
2023-01-28T20:06:30.135Z,3.33
2023-01-28T20:09:00.886Z,5.32
2023-01-28T20:11:28.587Z,3.60
2023-01-28T20:13:56.567Z,5.75
2023-01-28T20:16:25.892Z,2.35
2023-01-28T20:19:01.400Z,4.95
2023-01-28T20:21:31.119Z,4.82
2023-01-28T20:23:59.816Z,2.83
2023-01-28T20:26:31.571Z,6.22
2023-01-28T20:29:10.402Z,2.92
2023-01-28T20:31:38.638Z,3.08
2023-01-28T20:34:06.768Z,5.00
2023-01-28T20:36:34.502Z,6.95
2023-01-28T20:39:02.342Z,4.47
2023-01-28T20:41:30.278Z,4.65
2023-01-28T20:43:58.092Z,4.28
2023-01-28T20:46:28.165Z,8.88
2023-01-28T20:48:56.624Z,5.47
2023-01-28T20:51:28.515Z,4.47
2023-01-28T20:53:56.733Z,3.40
2023-01-28T20:56:25.450Z,6.25
2023-01-28T20:58:58.577Z,3.70
2023-01-28T21:01:28.445Z,2.55
2023-01-28T21:03:56.484Z,3.53
2023-01-28T21:06:24.474Z,2.67
2023-01-28T21:08:53.763Z,3.53
2023-01-28T21:11:21.913Z,2.58
2023-01-28T21:13:49.996Z,4.30
2023-01-28T21:16:17.904Z,4.15
2023-01-28T21:18:45.960Z,4.70
2023-01-28T21:21:24.082Z,4.75
2023-01-28T21:23:52.013Z,3.35
2023-01-28T21:26:19.726Z,5.45
2023-01-28T21:28:47.552Z,4.28
2023-01-28T21:31:22.952Z,3.88
2023-01-28T21:33:55.279Z,2.95
2023-01-28T21:36:23.454Z,2.10
2023-01-28T21:38:56.119Z,5.78
2023-01-28T21:41:24.162Z,3.58
2023-01-28T21:43:54.011Z,5.88
2023-01-28T21:46:22.645Z,3.22
2023-01-28T21:48:53.720Z,4.28
2023-01-28T21:51:36.424Z,3.20
2023-01-28T21:54:05.051Z,3.20
2023-01-28T21:56:32.796Z,3.95
2023-01-28T21:59:19.235Z,2.28
2023-01-28T22:01:47.221Z,3.72
2023-01-28T22:04:15.132Z,9.40
2023-01-28T22:06:43.189Z,3.83
2023-01-28T22:09:14.276Z,4.88
2023-01-28T22:11:42.952Z,3.28
2023-01-28T22:14:10.899Z,4.85
2023-01-28T22:16:38.787Z,4.35
2023-01-28T22:19:06.677Z,1.25
2023-01-28T22:21:41.440Z,5.80
2023-01-28T22:24:11.039Z,5.78
2023-01-28T22:26:39.426Z,10.18
2023-01-28T22:29:07.972Z,6.65
2023-01-28T22:31:35.992Z,7.45
2023-01-28T22:34:04.041Z,5.80
2023-01-28T22:36:33.316Z,8.43
2023-01-28T22:39:02.466Z,11.57
2023-01-28T22:41:30.443Z,6.63
2023-01-28T22:43:58.447Z,10.07
2023-01-28T22:46:26.214Z,15.15
2023-01-28T22:48:54.223Z,12.88
2023-01-28T22:51:23.630Z,9.65
2023-01-28T22:53:52.129Z,14.80
2023-01-28T22:56:21.404Z,10.75
2023-01-28T22:58:49.109Z,10.18
2023-01-28T23:01:18.072Z,14.88
2023-01-28T23:03:47.711Z,9.52
2023-01-28T23:06:17.117Z,9.20
2023-01-28T23:08:44.949Z,13.73
2023-01-28T23:11:15.597Z,16.20
2023-01-28T23:14:02.149Z,11.48
2023-01-28T23:16:49.354Z,10.05
2023-01-28T23:19:35.873Z,13.13
2023-01-28T23:22:22.455Z,8.88
2023-01-28T23:24:50.205Z,9.98
2023-01-28T23:27:17.983Z,11.35
2023-01-28T23:29:45.795Z,18.80
2023-01-28T23:32:13.916Z,7.47
2023-01-28T23:34:44.870Z,7.20
2023-01-28T23:37:13.455Z,11.27
2023-01-28T23:39:41.521Z,8.00
2023-01-28T23:42:13.688Z,8.80
2023-01-28T23:44:41.600Z,13.30
2023-01-28T23:47:09.398Z,10.95
2023-01-28T23:49:37.293Z,13.77
2023-01-28T23:52:05.937Z,13.65
2023-01-28T23:54:33.726Z,9.88
2023-01-28T23:57:01.726Z,11.98
2023-01-28T23:59:29.687Z,10.13
